Coco River, Florida
Current Conditions -  °F | °C
As of 7:53 PM on Friday 24 Oct 2014 (Local Time) from KAPF Reporting Station
Clear Clear  
Wind Chill: 75°   Ceiling: Unl
Heat Index: 75°   Visibility: 10mi
Dew Point: 63°   Wind: 7mph
Humidity: 66%   Direction: 40°NE
Pressure: 29.85"   Gusts: NA
Location:  26.2451°N, 81.8067°W
Report Text: KAPF 242353Z 04006KT 10SM CLR 24/17 A2985 RMK AO2 SLP108 T02390172 10306 20239 53008
Loading
Personal Weather Stations






























Interactive Weather Map
Tropical Storm Tracking
New forecast layout! Learn more

10-Day Weather Forecast

Advertisements
Track Severe Weather on mobile